Time;durP1;ratioP1;P1;durP2;ratioP2;P2;SDS_P1;SDS_P2;PMS_P1;PMS_P2;Temp;Humidity;BMP_temperature;BMP_pressure;BME280_temperature;BME280_humidity;BME280_pressure;Samples;Min_cycle;Max_cycle;Signal;HPM_P1;HPM_P2
2023/01/13 00:00:45;;;;;;;17.13;3.60;;;;;;;7.92;100.00;100401.38;5051331;28;20028;-59
2023/01/13 00:03:11;;;;;;;17.73;3.47;;;;;;;7.91;100.00;100388.28;5049842;28;20013;-61
2023/01/13 00:05:37;;;;;;;16.75;3.28;;;;;;;7.89;100.00;100404.28;5051921;28;20360;-60
2023/01/13 00:08:05;;;;;;;18.67;4.03;;;;;;;7.85;100.00;100396.69;5052289;28;20033;-61
2023/01/13 00:10:33;;;;;;;17.70;3.22;;;;;;;7.82;100.00;100399.53;5052021;28;20033;-61
2023/01/13 00:12:59;;;;;;;22.17;4.13;;;;;;;7.78;100.00;100407.69;5050997;28;20510;-60
2023/01/13 00:15:25;;;;;;;14.52;3.22;;;;;;;7.77;100.00;100400.69;5051728;28;20066;-61
2023/01/13 00:17:50;;;;;;;17.65;4.75;;;;;;;7.75;100.00;100388.56;5051436;28;20025;-61
2023/01/13 00:20:16;;;;;;;16.73;3.67;;;;;;;7.71;100.00;100385.31;5054517;28;20036;-61
2023/01/13 00:22:41;;;;;;;17.92;3.50;;;;;;;7.72;100.00;100380.84;5047766;28;20033;-61
2023/01/13 00:25:07;;;;;;;21.83;4.03;;;;;;;7.70;100.00;100372.19;5051278;28;20748;-61
2023/01/13 00:27:32;;;;;;;23.92;3.97;;;;;;;7.65;100.00;100369.03;5052082;28;20027;-61
2023/01/13 00:29:58;;;;;;;22.85;4.18;;;;;;;7.64;100.00;100369.97;5039323;28;20036;-61
2023/01/13 00:32:23;;;;;;;16.17;3.22;;;;;;;7.59;100.00;100373.81;5047127;28;20032;-61
2023/01/13 00:34:49;;;;;;;19.13;3.63;;;;;;;7.56;100.00;100370.53;5051311;28;20078;-60
2023/01/13 00:37:14;;;;;;;16.63;4.03;;;;;;;7.51;100.00;100360.31;5040135;28;20036;-60
2023/01/13 00:39:40;;;;;;;20.75;3.78;;;;;;;7.49;100.00;100356.91;5051129;28;20025;-60
2023/01/13 00:44:50;;;;;;;23.13;4.45;;;;;;;7.43;100.00;100354.72;5040839;28;20047;-60
2023/01/13 00:47:15;;;;;;;19.88;4.35;;;;;;;7.40;100.00;100350.47;5051347;28;20021;-60
2023/01/13 00:49:40;;;;;;;16.13;3.42;;;;;;;7.39;100.00;100350.59;5051389;28;20621;-60
2023/01/13 00:52:06;;;;;;;26.40;3.70;;;;;;;7.37;100.00;100355.16;5049431;28;20029;-60
2023/01/13 00:54:31;;;;;;;24.00;4.28;;;;;;;7.34;100.00;100353.56;5051438;28;20029;-59
2023/01/13 00:56:56;;;;;;;23.42;4.10;;;;;;;7.32;100.00;100346.69;5050762;28;20052;-61
2023/01/13 00:59:22;;;;;;;21.98;4.03;;;;;;;7.30;100.00;100351.25;5051165;28;20074;-60
2023/01/13 01:01:47;;;;;;;27.67;4.78;;;;;;;7.28;100.00;100361.06;5050196;28;20083;-60
2023/01/13 01:04:12;;;;;;;21.45;4.00;;;;;;;7.27;100.00;100352.31;5049529;28;20021;-61
2023/01/13 01:06:37;;;;;;;27.85;4.57;;;;;;;7.23;100.00;100356.13;5046366;28;20116;-60
2023/01/13 01:09:04;;;;;;;18.88;3.65;;;;;;;7.22;100.00;100362.34;5050873;28;20029;-60
2023/01/13 01:11:31;;;;;;;23.42;4.50;;;;;;;7.19;100.00;100374.00;5045857;28;20120;-60
2023/01/13 01:14:00;;;;;;;26.98;4.50;;;;;;;7.19;100.00;100374.00;5051632;28;20377;-59
2023/01/13 01:16:27;;;;;;;25.85;4.53;;;;;;;7.21;100.00;100360.66;5043637;28;20080;-60
2023/01/13 01:18:53;;;;;;;17.13;3.47;;;;;;;7.22;100.00;100375.56;5045618;28;20103;-60
2023/01/13 01:21:19;;;;;;;24.38;4.18;;;;;;;7.23;100.00;100369.34;5051024;28;20029;-60
2023/01/13 01:23:44;;;;;;;21.67;4.57;;;;;;;7.23;100.00;100364.06;5045179;28;20033;-60
2023/01/13 01:26:13;;;;;;;20.85;3.65;;;;;;;7.23;100.00;100361.41;5048703;28;20052;-60
2023/01/13 01:28:39;;;;;;;23.52;3.65;;;;;;;7.25;100.00;100363.94;5043436;28;20033;-60
2023/01/13 01:31:06;;;;;;;17.88;4.20;;;;;;;7.26;100.00;100362.97;5045762;28;20036;-60
2023/01/13 01:33:31;;;;;;;22.83;4.65;;;;;;;7.27;100.00;100370.78;5047528;28;20037;-60
2023/01/13 01:35:59;;;;;;;21.15;4.60;;;;;;;7.29;100.00;100368.06;5046197;28;20028;-60
2023/01/13 01:38:24;;;;;;;25.85;5.05;;;;;;;7.27;100.00;100362.88;5050724;28;20025;-59
2023/01/13 01:40:49;;;;;;;21.58;4.28;;;;;;;7.27;100.00;100368.16;5050057;28;20066;-60
2023/01/13 01:46:02;;;;;;;27.17;4.38;;;;;;;7.20;100.00;100358.97;5050305;28;20101;-60
2023/01/13 01:48:32;;;;;;;23.60;4.65;;;;;;;7.18;100.00;100359.09;5050557;28;20542;-60
2023/01/13 01:50:58;;;;;;;27.63;4.65;;;;;;;7.15;100.00;100356.66;5038423;28;20473;-60
2023/01/13 01:53:27;;;;;;;24.55;4.75;;;;;;;7.13;100.00;100361.22;5050637;28;20055;-60
2023/01/13 01:55:53;;;;;;;22.35;4.85;;;;;;;7.11;100.00;100363.13;5048021;28;20540;-60
2023/01/13 01:58:32;;;;;;;31.38;5.35;;;;;;;7.08;100.00;100367.75;5050650;28;20506;-60
2023/01/13 02:00:58;;;;;;;27.67;5.15;;;;;;;7.05;100.00;100371.47;5050305;28;20116;-58
2023/01/13 02:03:23;;;;;;;29.13;5.90;;;;;;;7.05;100.00;100368.81;5050466;28;20107;-60
2023/01/13 02:05:49;;;;;;;25.45;4.97;;;;;;;7.01;100.00;100362.03;5049726;28;20025;-60
2023/01/13 02:08:16;;;;;;;23.92;5.18;;;;;;;6.99;100.00;100363.97;5050135;28;20061;-60
2023/01/13 02:10:45;;;;;;;35.75;6.10;;;;;;;6.98;100.00;100362.28;5051836;28;20021;-60
2023/01/13 02:13:12;;;;;;;32.63;6.28;;;;;;;6.96;100.00;100366.81;5049181;28;20116;-59
2023/01/13 02:15:48;;;;;;;27.83;5.07;;;;;;;6.93;100.00;100359.09;5054205;28;20049;-60
2023/01/13 02:18:44;;;;;;;28.77;5.35;;;;;;;6.92;100.00;100358.25;5054162;28;20398;-59
2023/01/13 02:21:46;;;;;;;35.38;5.32;;;;;;;6.90;100.00;100372.53;5047685;28;20033;-59
2023/01/13 02:28:01;;;;;;;30.75;5.63;;;;;;;6.82;100.00;100373.88;4994235;28;20046;-60
2023/01/13 02:33:35;;;;;;;25.10;5.47;;;;;;;6.76;100.00;100373.44;5038431;28;20044;-60
2023/01/13 02:36:10;;;;;;;34.28;6.07;;;;;;;6.75;100.00;100375.25;5055782;28;20472;-59
2023/01/13 02:38:43;;;;;;;29.48;5.05;;;;;;;6.74;100.00;100372.72;5051973;28;20112;-60
2023/01/13 02:44:06;;;;;;;32.35;5.13;;;;;;;6.74;100.00;100355.09;5056331;28;20047;-60
2023/01/13 02:46:36;;;;;;;24.90;4.57;;;;;;;6.74;100.00;100343.69;5054225;28;20063;-58
2023/01/13 02:49:06;;;;;;;30.08;6.35;;;;;;;6.79;100.00;100354.78;5055999;28;20555;-60
2023/01/13 02:51:33;;;;;;;27.05;5.07;;;;;;;6.78;100.00;100353.94;5055299;28;20017;-59
2023/01/13 02:54:04;;;;;;;26.52;4.35;;;;;;;6.80;100.00;100359.13;5055855;28;20529;-59
2023/01/13 02:56:33;;;;;;;26.48;5.55;;;;;;;6.83;100.00;100349.19;5042776;28;20074;-59
2023/01/13 02:59:00;;;;;;;29.37;5.47;;;;;;;6.84;100.00;100335.06;5055197;28;20108;-55
2023/01/13 03:01:26;;;;;;;28.70;4.72;;;;;;;6.86;100.00;100334.91;5053107;28;20069;-59
2023/01/13 03:03:51;;;;;;;23.10;5.28;;;;;;;6.88;100.00;100330.41;5054483;28;20033;-59
2023/01/13 03:06:35;;;;;;;27.30;5.15;;;;;;;6.88;100.00;100333.03;5054983;28;20029;-59
2023/01/13 03:09:12;;;;;;;23.92;4.28;;;;;;;6.89;100.00;100325.94;5043505;28;20033;-59
2023/01/13 03:11:49;;;;;;;22.17;4.57;;;;;;;6.89;100.00;100328.59;5051718;28;20033;-59
2023/01/13 03:14:38;;;;;;;23.55;4.25;;;;;;;6.91;100.00;100330.19;5055204;28;20055;-59
2023/01/13 03:17:40;;;;;;;23.65;4.40;;;;;;;6.92;100.00;100331.03;5042665;28;20051;-59
2023/01/13 03:20:07;;;;;;;28.58;4.80;;;;;;;6.94;100.00;100329.09;5051035;28;20047;-58
2023/01/13 03:22:40;;;;;;;25.38;4.43;;;;;;;6.97;100.00;100319.19;5053867;28;20360;-59
2023/01/13 03:25:14;;;;;;;22.67;3.80;;;;;;;7.07;100.00;100337.03;5033307;28;20029;-60
2023/01/13 03:27:50;;;;;;;25.75;4.20;;;;;;;7.03;100.00;100329.31;5054769;28;20043;-59
2023/01/13 03:30:21;;;;;;;25.80;4.28;;;;;;;7.07;100.00;100329.94;5055042;28;20053;-59
2023/01/13 03:32:55;;;;;;;20.67;3.60;;;;;;;7.09;100.00;100333.31;5047906;28;20475;-60
2023/01/13 03:35:29;;;;;;;17.25;3.63;;;;;;;7.10;99.05;100332.38;5054919;28;20039;-58
2023/01/13 03:38:19;;;;;;;17.70;3.42;;;;;;;7.16;96.38;100328.44;5054731;28;20025;-60
2023/01/13 03:40:49;;;;;;;15.88;3.03;;;;;;;7.17;94.37;100323.06;5053722;28;20041;-60
2023/01/13 03:46:14;;;;;;;10.60;2.53;;;;;;;7.15;93.63;100324.13;5054776;28;20091;-59
2023/01/13 03:48:42;;;;;;;8.98;1.88;;;;;;;7.14;93.30;100320.63;5049810;28;20029;-59
2023/01/13 03:51:12;;;;;;;7.00;1.83;;;;;;;7.15;92.58;100313.56;5054714;28;20363;-60
2023/01/13 03:53:42;;;;;;;8.25;1.38;;;;;;;7.12;91.89;100317.25;5054292;28;20063;-59
2023/01/13 03:56:25;;;;;;;7.70;1.80;;;;;;;7.13;93.06;100310.19;5051747;28;20057;-59
2023/01/13 03:58:52;;;;;;;4.97;1.30;;;;;;;7.09;93.95;100308.72;5054081;28;20032;-58
2023/01/13 04:01:23;;;;;;;5.43;1.67;;;;;;;7.07;93.15;100311.47;5048451;28;20075;-58
2023/01/13 04:04:12;;;;;;;5.90;1.60;;;;;;;7.08;94.96;100326.38;5052282;28;20060;-59
2023/01/13 04:06:52;;;;;;;6.57;1.40;;;;;;;7.02;94.93;100324.16;5043324;28;20057;-59
2023/01/13 04:09:26;;;;;;;7.97;2.03;;;;;;;6.99;95.91;100329.63;5054060;28;20037;-55
2023/01/13 04:11:59;;;;;;;8.43;1.83;;;;;;;6.98;95.91;100333.25;5053755;28;20032;-57
2023/01/13 04:14:26;;;;;;;7.30;1.90;;;;;;;6.93;96.44;100343.25;5053576;28;20037;-57
2023/01/13 04:16:52;;;;;;;10.00;2.30;;;;;;;6.90;97.73;100335.56;5053228;28;20049;-59
2023/01/13 04:19:17;;;;;;;5.63;1.95;;;;;;;6.87;98.74;100346.34;5045550;28;20088;-59
2023/01/13 04:21:43;;;;;;;7.63;2.28;;;;;;;6.81;99.46;100345.81;5052363;28;20426;-59
2023/01/13 04:24:08;;;;;;;11.20;2.58;;;;;;;6.78;100.00;100359.22;5053604;28;20024;-58
2023/01/13 04:26:34;;;;;;;9.27;2.22;;;;;;;6.78;100.00;100363.66;5040979;28;20548;-59
2023/01/13 04:28:59;;;;;;;13.77;2.85;;;;;;;6.77;100.00;100359.31;5053452;28;20104;-59
2023/01/13 04:31:24;;;;;;;13.70;3.10;;;;;;;6.78;100.00;100355.75;5053120;28;20387;-58
2023/01/13 04:33:49;;;;;;;13.60;2.53;;;;;;;6.75;100.00;100355.94;5047459;28;20034;-59
2023/01/13 04:36:15;;;;;;;9.52;2.50;;;;;;;6.75;100.00;100350.66;5051060;28;20481;-59
2023/01/13 04:38:40;;;;;;;13.57;2.95;;;;;;;6.74;100.00;100348.97;5052826;28;20036;-59
2023/01/13 04:41:05;;;;;;;17.75;3.17;;;;;;;6.72;100.00;100345.59;5044254;28;20510;-58
2023/01/13 04:43:31;;;;;;;12.77;2.95;;;;;;;6.73;100.00;100350.78;5053146;28;20083;-58
2023/01/13 04:45:56;;;;;;;15.20;3.28;;;;;;;6.72;100.00;100351.72;5051222;28;20021;-59
2023/01/13 04:48:21;;;;;;;19.60;3.28;;;;;;;6.74;100.00;100347.16;5053150;28;20364;-58
2023/01/13 04:50:46;;;;;;;24.10;3.95;;;;;;;6.75;100.00;100348.88;5052915;28;20056;-59
2023/01/13 04:53:12;;;;;;;16.02;3.58;;;;;;;6.73;100.00;100352.53;5053117;28;20379;-59
2023/01/13 04:55:37;;;;;;;13.00;3.15;;;;;;;6.74;100.00;100348.97;5048980;28;20033;-58
2023/01/13 04:58:05;;;;;;;15.25;3.22;;;;;;;6.76;100.00;100341.78;5043439;28;20174;-59
2023/01/13 05:00:30;;;;;;;14.75;3.25;;;;;;;6.72;100.00;100329.75;5052738;28;20017;-59
2023/01/13 05:02:56;;;;;;;18.85;3.28;;;;;;;6.71;100.00;100334.22;5052853;28;20082;-59
2023/01/13 05:05:22;;;;;;;18.00;3.58;;;;;;;6.69;100.00;100333.44;5039890;28;20116;-59
2023/01/13 05:07:47;;;;;;;18.45;3.40;;;;;;;6.71;100.00;100339.47;5052887;28;20116;-60
2023/01/13 05:10:13;;;;;;;15.82;3.30;;;;;;;6.71;100.00;100333.34;5034801;28;20070;-59
2023/01/13 05:18:07;;;;;;;16.08;4.05;;;;;;;6.65;100.00;100330.16;5052671;28;20086;-59
2023/01/13 05:20:33;;;;;;;19.52;3.25;;;;;;;6.64;100.00;100325.00;5039675;28;20029;-59
2023/01/13 05:25:42;;;;;;;11.95;2.80;;;;;;;6.61;100.00;100333.13;5052354;28;20059;-59
2023/01/13 05:28:08;;;;;;;12.75;2.70;;;;;;;6.58;100.00;100333.34;5052081;28;20048;-58
2023/01/13 05:30:41;;;;;;;16.35;3.22;;;;;;;6.58;100.00;100336.81;5044357;28;20037;-59
2023/01/13 05:33:08;;;;;;;16.00;3.35;;;;;;;6.56;100.00;100337.88;5052453;28;20021;-58
2023/01/13 05:35:33;;;;;;;12.20;2.90;;;;;;;6.57;100.00;100350.97;5046918;28;20387;-59
2023/01/13 05:37:59;;;;;;;14.60;3.15;;;;;;;6.54;100.00;100335.34;5052230;28;20021;-59
2023/01/13 05:43:20;;;;;;;16.08;3.35;;;;;;;6.48;100.00;100348.97;5044433;28;20044;-59
2023/01/13 05:45:58;;;;;;;21.40;3.78;;;;;;;6.52;100.00;100354.88;5047804;28;20033;-59
2023/01/13 05:48:33;;;;;;;18.55;3.45;;;;;;;6.47;100.00;100356.00;5044620;28;20084;-59
2023/01/13 05:50:59;;;;;;;16.63;3.00;;;;;;;6.46;100.00;100364.88;5051546;28;20037;-59
2023/01/13 05:53:24;;;;;;;17.75;3.20;;;;;;;6.44;100.00;100369.41;5051839;28;20102;-59
2023/01/13 05:55:50;;;;;;;14.60;2.92;;;;;;;6.42;100.00;100368.66;5052124;28;20483;-58
2023/01/13 05:58:17;;;;;;;17.67;3.28;;;;;;;6.41;100.00;100372.28;5041516;28;20088;-59
2023/01/13 06:00:43;;;;;;;14.88;2.92;;;;;;;6.38;100.00;100364.56;5051345;28;20024;-58
2023/01/13 06:03:09;;;;;;;17.73;3.28;;;;;;;6.38;100.00;100376.88;5046547;28;20025;-59
2023/01/13 06:05:35;;;;;;;18.70;3.00;;;;;;;6.36;100.00;100374.38;5052057;28;20021;-59
2023/01/13 06:08:01;;;;;;;18.45;3.63;;;;;;;6.36;100.00;100370.88;5042053;28;20032;-59
2023/01/13 06:10:28;;;;;;;13.80;3.53;;;;;;;6.35;100.00;100377.09;5051140;28;20037;-59
2023/01/13 06:12:54;;;;;;;18.17;3.35;;;;;;;6.32;100.00;100383.41;5052093;28;20044;-58
2023/01/13 06:15:20;;;;;;;18.05;3.25;;;;;;;6.32;100.00;100382.59;5047701;28;20050;-58
2023/01/13 06:17:45;;;;;;;19.23;2.95;;;;;;;6.31;100.00;100381.72;5044955;28;20025;-58
2023/01/13 06:20:12;;;;;;;17.95;3.75;;;;;;;6.29;100.00;100392.41;5051622;28;20032;-59
2023/01/13 06:22:43;;;;;;;17.73;3.60;;;;;;;6.29;100.00;100391.53;5044841;28;20048;-58
2023/01/13 06:25:18;;;;;;;14.63;3.60;;;;;;;6.27;100.00;100394.25;5051567;28;20029;-58
2023/01/13 06:27:44;;;;;;;14.15;3.42;;;;;;;6.28;100.00;100405.69;5050447;28;20040;-59
2023/01/13 06:30:10;;;;;;;17.27;4.00;;;;;;;6.28;100.00;100392.50;5051568;28;20107;-59
2023/01/13 06:32:42;;;;;;;16.63;3.42;;;;;;;6.28;100.00;100395.13;5039536;28;20120;-59
2023/01/13 06:35:12;;;;;;;15.85;3.47;;;;;;;6.26;100.00;100408.41;5051682;28;20028;-59
2023/01/13 06:37:41;;;;;;;18.63;3.65;;;;;;;6.29;99.97;100404.72;5038549;28;20430;-59
2023/01/13 06:40:07;;;;;;;21.13;3.80;;;;;;;6.28;100.00;100414.44;5051820;28;20542;-59
2023/01/13 06:45:20;;;;;;;22.60;3.17;;;;;;;6.26;100.00;100416.31;5051842;28;20048;-60
2023/01/13 06:47:45;;;;;;;20.40;3.63;;;;;;;6.25;100.00;100404.06;5038566;28;20502;-59
2023/01/13 06:50:11;;;;;;;19.55;3.47;;;;;;;6.28;99.93;100416.22;5039650;28;20037;-60
2023/01/13 06:52:37;;;;;;;19.77;3.60;;;;;;;6.32;99.86;100408.97;5051642;28;20057;-59
2023/01/13 06:55:02;;;;;;;15.85;3.08;;;;;;;6.33;99.51;100415.91;5051805;28;20478;-59
2023/01/13 06:57:27;;;;;;;20.60;3.50;;;;;;;6.35;99.02;100401.69;5049885;28;20032;-60
2023/01/13 06:59:53;;;;;;;11.48;2.90;;;;;;;6.37;98.37;100394.50;5034243;28;20021;-60
2023/01/13 07:02:18;;;;;;;18.88;3.60;;;;;;;6.39;98.91;100408.44;5036070;28;20032;-60
2023/01/13 07:04:45;;;;;;;15.73;3.30;;;;;;;6.37;98.87;100409.50;5035380;28;20081;-60
2023/01/13 07:07:11;;;;;;;18.63;3.22;;;;;;;6.39;98.15;100408.44;5049484;28;20032;-60
2023/01/13 07:09:36;;;;;;;24.20;4.50;;;;;;;6.41;97.72;100418.88;5047642;28;20560;-60
2023/01/13 07:12:02;;;;;;;17.75;3.58;;;;;;;6.41;97.39;100419.75;5053074;28;20857;-58
2023/01/13 07:17:10;;;;;;;21.77;4.00;;;;;;;6.41;96.30;100414.47;5051481;28;20096;-59
2023/01/13 07:19:36;;;;;;;19.42;4.38;;;;;;;6.41;96.33;100432.94;5047748;28;20429;-58
2023/01/13 07:22:01;;;;;;;14.65;3.30;;;;;;;6.39;96.00;100426.06;5039160;28;20056;-59
2023/01/13 07:24:26;;;;;;;18.13;3.22;;;;;;;6.37;96.34;100426.16;5048223;28;20427;-59
2023/01/13 07:26:52;;;;;;;18.63;3.28;;;;;;;6.37;95.39;100428.78;5028329;28;20049;-57
2023/01/13 07:29:17;;;;;;;16.02;3.20;;;;;;;6.38;95.10;100429.63;5048992;28;20032;-58
2023/01/13 07:31:43;;;;;;;19.23;3.58;;;;;;;6.35;95.04;100424.59;5047376;28;20042;-58
2023/01/13 07:34:08;;;;;;;18.45;3.63;;;;;;;6.32;95.03;100417.72;5046664;28;20029;-57
2023/01/13 07:36:34;;;;;;;17.40;3.40;;;;;;;6.30;95.02;100422.25;5053424;28;20379;-57
2023/01/13 07:38:59;;;;;;;17.77;3.45;;;;;;;6.30;94.98;100422.25;5044603;28;20400;-57
2023/01/13 07:44:09;;;;;;;23.63;4.60;;;;;;;6.28;94.89;100442.59;5036904;28;20083;-56
2023/01/13 07:46:35;;;;;;;23.25;4.10;;;;;;;6.28;95.11;100447.88;5020389;28;20432;-58
2023/01/13 07:49:01;;;;;;;20.48;3.65;;;;;;;6.26;95.86;100441.84;5039922;28;20041;-57
2023/01/13 07:51:27;;;;;;;16.27;3.70;;;;;;;6.26;95.15;100444.47;5036802;28;20025;-57
2023/01/13 07:53:52;;;;;;;22.00;3.60;;;;;;;6.25;95.10;100456.81;5041114;28;20103;-56
2023/01/13 07:56:18;;;;;;;21.40;4.13;;;;;;;6.26;95.21;100462.94;5038968;28;20456;-56
2023/01/13 07:58:49;;;;;;;16.77;4.07;;;;;;;6.25;95.33;100463.91;5042203;28;20124;-58
2023/01/13 08:01:18;;;;;;;16.88;3.47;;;;;;;6.21;95.85;100459.75;5043555;28;20033;-56
2023/01/13 08:03:43;;;;;;;18.73;3.72;;;;;;;6.20;96.32;100458.91;5045502;28;20053;-57
2023/01/13 08:06:10;;;;;;;22.50;3.70;;;;;;;6.18;96.49;100460.81;5035431;28;20541;-56
2023/01/13 08:08:36;;;;;;;22.85;3.65;;;;;;;6.17;96.49;100469.66;5037687;28;20507;-57
2023/01/13 08:11:05;;;;;;;23.98;4.32;;;;;;;6.14;97.04;100461.09;5032316;28;20079;-57
2023/01/13 08:13:31;;;;;;;22.87;4.27;;;;;;;6.15;97.25;100476.81;5039824;28;20046;-56
2023/01/13 08:16:02;;;;;;;17.40;4.60;;;;;;;6.17;96.89;100460.91;5034127;28;20046;-56
2023/01/13 08:18:28;;;;;;;17.90;3.55;;;;;;;6.17;96.91;100464.38;5036610;28;20494;-58
2023/01/13 08:20:53;;;;;;;18.92;3.90;;;;;;;6.17;97.24;100471.47;5038288;28;20113;-57
2023/01/13 08:23:22;;;;;;;18.67;4.38;;;;;;;6.17;97.70;100466.19;5043418;28;20065;-57
2023/01/13 08:25:49;;;;;;;22.77;3.85;;;;;;;6.18;97.92;100460.81;5041081;28;20124;-56
2023/01/13 08:28:15;;;;;;;21.90;3.72;;;;;;;6.21;97.95;100465.03;5050944;28;20063;-56
2023/01/13 08:30:41;;;;;;;22.85;4.00;;;;;;;6.22;97.58;100477.28;5049690;28;20047;-57
2023/01/13 08:33:08;;;;;;;21.30;4.20;;;;;;;6.22;97.81;100466.72;5052194;28;20032;-58
2023/01/13 08:35:38;;;;;;;17.92;4.47;;;;;;;6.22;98.27;100483.38;5053789;28;20033;-57
2023/01/13 08:38:05;;;;;;;21.30;4.43;;;;;;;6.25;97.62;100456.00;5053922;28;20041;-55
2023/01/13 08:40:30;;;;;;;25.92;4.90;;;;;;;6.27;97.84;100459.38;5044594;28;20044;-58
2023/01/13 08:42:56;;;;;;;19.70;4.10;;;;;;;6.32;97.54;100466.97;5053475;28;20056;-57
2023/01/13 08:45:22;;;;;;;29.10;4.20;;;;;;;6.35;97.67;100472.91;5039338;28;20033;-57
2023/01/13 08:47:47;;;;;;;22.30;4.63;;;;;;;6.41;97.32;100466.38;5036823;28;20017;-56
2023/01/13 08:50:13;;;;;;;25.02;4.18;;;;;;;6.46;97.14;100469.56;5038317;28;20475;-57
2023/01/13 08:52:39;;;;;;;25.55;4.13;;;;;;;6.49;97.88;100458.81;5036886;28;20024;-57
2023/01/13 08:55:05;;;;;;;18.42;4.40;;;;;;;6.52;97.19;100478.88;5048567;28;20483;-57
2023/01/13 08:57:30;;;;;;;16.60;4.13;;;;;;;6.57;97.64;100474.13;5045314;28;20564;-57
2023/01/13 08:59:56;;;;;;;24.88;4.85;;;;;;;6.62;96.19;100480.78;5045991;28;20021;-57
2023/01/13 09:02:22;;;;;;;21.83;4.10;;;;;;;6.67;95.63;100477.84;5048781;28;20029;-57
2023/01/13 09:04:48;;;;;;;20.45;4.05;;;;;;;6.70;96.07;100475.03;5025765;28;20633;-56
2023/01/13 09:07:15;;;;;;;21.70;3.65;;;;;;;6.74;95.15;100481.78;5050484;28;20104;-58
2023/01/13 09:09:41;;;;;;;20.83;4.70;;;;;;;6.77;94.87;100473.66;5039245;28;20024;-57
2023/01/13 09:14:51;;;;;;;26.02;5.05;;;;;;;6.81;94.11;100467.25;5035136;28;20458;-56
2023/01/13 09:17:17;;;;;;;21.95;4.25;;;;;;;6.82;94.04;100476.84;5042600;28;20021;-57
2023/01/13 09:19:42;;;;;;;27.38;4.88;;;;;;;6.82;94.25;100484.75;5044465;28;20391;-58
2023/01/13 09:22:14;;;;;;;22.13;4.85;;;;;;;6.89;94.08;100503.66;5044832;28;20024;-57
2023/01/13 09:24:39;;;;;;;24.88;4.50;;;;;;;6.92;93.70;100505.28;5042184;28;20056;-57
2023/01/13 09:27:04;;;;;;;20.90;4.15;;;;;;;7.00;92.59;100505.59;5032847;28;20061;-57
2023/01/13 09:29:29;;;;;;;24.13;4.63;;;;;;;7.09;92.28;100519.97;5039978;28;20364;-56
2023/01/13 09:31:56;;;;;;;28.70;5.10;;;;;;;7.14;92.66;100523.16;5037052;28;20033;-57
2023/01/13 09:37:06;;;;;;;25.50;4.57;;;;;;;7.17;91.73;100529.06;5046284;28;20041;-57
2023/01/13 09:39:33;;;;;;;25.15;5.20;;;;;;;7.18;92.12;100532.56;5045230;28;20502;-57
2023/01/13 09:45:04;;;;;;;24.25;4.55;;;;;;;7.22;91.47;100539.31;5043741;28;20498;-57
2023/01/13 09:47:56;;;;;;;19.65;3.97;;;;;;;7.24;91.79;100542.72;5044289;28;20125;-57
2023/01/13 09:50:46;;;;;;;26.50;5.20;;;;;;;7.24;92.23;100553.28;5043879;28;20471;-56
2023/01/13 09:53:21;;;;;;;24.83;4.82;;;;;;;7.24;90.95;100545.34;5043994;28;20079;-57
2023/01/13 09:55:47;;;;;;;29.85;5.15;;;;;;;7.26;91.51;100539.97;5038528;28;20090;-57
2023/01/13 09:58:17;;;;;;;21.10;4.28;;;;;;;7.24;90.90;100542.72;5040473;28;20104;-57
2023/01/13 10:00:59;;;;;;;25.52;4.63;;;;;;;7.27;91.25;100547.78;5022094;28;20102;-57
2023/01/13 10:03:29;;;;;;;23.98;4.75;;;;;;;7.27;91.52;100554.88;5038486;28;20519;-57
2023/01/13 10:06:05;;;;;;;26.63;5.20;;;;;;;7.26;92.68;100551.41;5039709;28;20036;-58
2023/01/13 10:08:33;;;;;;;29.73;5.32;;;;;;;7.28;91.40;100553.91;5033207;28;20058;-56
2023/01/13 10:13:12;;;;;;;23.58;4.60;;;;;;;7.30;90.59;100559.97;5045204;28;20021;-57
2023/01/13 10:13:52;;;;;;;25.90;5.13;;;;;;;7.35;91.96;100549.91;5045396;28;20485;-58
2023/01/13 10:16:28;;;;;;;28.25;4.97;;;;;;;7.42;92.16;100551.19;5043932;28;20399;-57
2023/01/13 10:19:10;;;;;;;23.20;5.07;;;;;;;7.52;91.24;100554.06;5048004;28;20120;-57
2023/01/13 10:22:07;;;;;;;25.17;5.80;;;;;;;7.62;91.02;100559.56;5036502;28;20028;-57
2023/01/13 10:24:35;;;;;;;27.50;5.88;;;;;;;7.63;90.89;100570.03;5023516;28;20061;-57
2023/01/13 10:27:04;;;;;;;25.80;5.40;;;;;;;7.65;90.92;100564.63;5048848;28;20116;-58
2023/01/13 10:29:31;;;;;;;29.85;6.18;;;;;;;7.63;92.98;100570.03;5051413;28;20021;-59
2023/01/13 10:31:58;;;;;;;25.00;5.85;;;;;;;7.58;94.40;100570.34;5047850;28;20112;-54
2023/01/13 10:34:24;;;;;;;24.58;5.35;;;;;;;7.55;94.64;100575.00;5055841;28;20503;-54
2023/01/13 10:37:16;;;;;;;19.42;4.95;;;;;;;7.46;93.95;100584.41;5052497;28;20527;-56
2023/01/13 10:39:45;;;;;;;28.75;5.18;;;;;;;7.40;95.73;100604.13;5055424;28;20033;-57
2023/01/13 10:42:16;;;;;;;23.25;5.22;;;;;;;7.34;96.37;100601.91;5056159;28;20087;-57
2023/01/13 10:44:56;;;;;;;27.70;5.15;;;;;;;7.28;97.82;100607.59;5049801;28;20056;-58
2023/01/13 10:47:24;;;;;;;25.98;4.97;;;;;;;7.21;98.38;100607.16;5055355;28;20033;-58
2023/01/13 10:50:11;;;;;;;27.60;5.63;;;;;;;7.17;99.04;100616.22;5045599;28;20030;-58
2023/01/13 10:52:41;;;;;;;25.08;4.80;;;;;;;7.09;99.97;100607.97;5054149;28;20032;-59
2023/01/13 10:55:26;;;;;;;21.10;4.88;;;;;;;7.07;100.00;100609.03;5041569;28;20029;-58
2023/01/13 10:57:51;;;;;;;23.77;5.40;;;;;;;7.04;100.00;100608.28;5042102;28;20021;-58
2023/01/13 11:00:32;;;;;;;20.88;4.90;;;;;;;7.04;100.00;100612.69;5049094;28;20026;-57
2023/01/13 11:03:14;;;;;;;22.52;4.10;;;;;;;7.06;100.00;100615.25;5045343;28;20311;-58
2023/01/13 11:05:46;;;;;;;22.95;5.15;;;;;;;7.02;100.00;100606.69;5050255;28;20025;-59
2023/01/13 11:08:23;;;;;;;27.83;5.22;;;;;;;7.03;100.00;100608.38;5037052;28;20045;-58
2023/01/13 11:10:50;;;;;;;28.40;5.72;;;;;;;7.03;100.00;100613.66;5052590;28;20036;-58
2023/01/13 11:13:29;;;;;;;24.80;5.53;;;;;;;7.04;99.41;100602.13;5050470;28;20438;-57
2023/01/13 11:16:04;;;;;;;27.75;5.32;;;;;;;7.06;98.34;100613.47;5048215;28;20053;-58
2023/01/13 11:19:10;;;;;;;21.98;4.43;;;;;;;7.07;98.48;100614.31;5050623;28;20037;-58
2023/01/13 11:21:53;;;;;;;28.45;4.78;;;;;;;7.09;97.45;100607.13;5038293;28;20058;-58
2023/01/13 11:24:26;;;;;;;27.95;4.78;;;;;;;7.14;97.43;100612.94;5046216;28;20485;-57
2023/01/13 11:27:06;;;;;;;23.58;4.75;;;;;;;7.15;97.21;100619.94;5038950;28;20116;-58
2023/01/13 11:29:43;;;;;;;26.20;5.05;;;;;;;7.18;96.91;100620.56;5049228;28;20483;-58
2023/01/13 11:32:20;;;;;;;22.85;4.85;;;;;;;7.22;96.32;100624.69;5045335;28;20431;-58
2023/01/13 11:34:54;;;;;;;23.35;5.22;;;;;;;7.25;96.58;100621.03;5043509;28;20048;-58
2023/01/13 11:37:39;;;;;;;21.70;4.45;;;;;;;7.29;95.91;100630.41;5049918;28;20552;-59
2023/01/13 11:40:10;;;;;;;25.23;4.63;;;;;;;7.30;96.23;100628.66;5039922;28;20064;-58
2023/01/13 11:42:45;;;;;;;26.67;4.90;;;;;;;7.31;95.09;100636.47;5034367;28;20068;-58
2023/01/13 11:45:15;;;;;;;22.92;4.50;;;;;;;7.34;94.15;100638.88;5034329;28;20025;-57
2023/01/13 11:47:41;;;;;;;22.05;4.45;;;;;;;7.34;95.22;100641.53;5038041;28;20025;-58
2023/01/13 11:50:35;;;;;;;26.83;4.68;;;;;;;7.37;95.70;100653.69;5038311;28;20027;-57
2023/01/13 11:53:14;;;;;;;27.13;5.95;;;;;;;7.37;95.39;100646.59;5012351;28;20041;-58
2023/01/13 11:56:07;;;;;;;25.40;4.60;;;;;;;7.40;94.03;100645.56;5038095;28;20111;-58
2023/01/13 11:58:54;;;;;;;25.38;5.30;;;;;;;7.40;93.55;100659.63;5039751;28;20287;-58
2023/01/13 12:01:31;;;;;;;24.58;4.78;;;;;;;7.40;93.08;100638.47;5034665;28;20399;-57
2023/01/13 12:04:08;;;;;;;27.95;5.13;;;;;;;7.43;92.07;100655.94;5037885;28;20154;-58
2023/01/13 12:06:37;;;;;;;27.33;4.78;;;;;;;7.47;91.98;100661.88;5037695;28;20384;-58
2023/01/13 12:09:22;;;;;;;21.58;4.53;;;;;;;7.49;91.56;100659.97;5036803;28;20387;-57
2023/01/13 12:12:18;;;;;;;20.70;4.22;;;;;;;7.50;91.28;100669.59;5035151;28;20140;-57
2023/01/13 12:14:54;;;;;;;24.40;4.32;;;;;;;7.53;91.06;100661.47;5045537;28;20032;-54
2023/01/13 12:17:58;;;;;;;20.48;4.13;;;;;;;7.56;90.91;100663.88;5054071;28;20048;-57
2023/01/13 12:20:46;;;;;;;24.27;4.15;;;;;;;7.55;90.43;100665.69;5015812;28;20499;-57